Time;durP1;ratioP1;P1;durP2;ratioP2;P2;SDS_P1;SDS_P2;PMS_P1;PMS_P2;Temp;Humidity;BMP_temperature;BMP_pressure;BME280_temperature;BME280_humidity;BME280_pressure;Samples;Min_cycle;Max_cycle;Signal;HPM_P1;HPM_P2
2021/09/12 00:01:33;;;;;;;8.63;5.68;;;18.80;99.90;;;;;;5091517;28;20081;-62
2021/09/12 00:03:59;;;;;;;10.52;5.75;;;18.70;99.90;;;;;;5090254;28;20044;-67
2021/09/12 00:06:26;;;;;;;5.72;5.13;;;18.70;99.90;;;;;;5091218;28;20032;-62
2021/09/12 00:08:52;;;;;;;9.35;5.63;;;18.80;99.90;;;;;;5089521;28;20389;-61
2021/09/12 00:11:17;;;;;;;5.40;4.90;;;18.70;99.90;;;;;;5089222;28;20039;-61
2021/09/12 00:13:43;;;;;;;10.43;5.47;;;18.70;99.90;;;;;;5090175;28;20461;-72
2021/09/12 00:16:09;;;;;;;11.13;5.25;;;18.80;99.90;;;;;;5089436;28;20024;-61
2021/09/12 00:18:34;;;;;;;9.25;5.38;;;18.80;99.90;;;;;;5090404;28;20024;-61
2021/09/12 00:21:00;;;;;;;10.63;5.03;;;18.80;99.90;;;;;;5089893;28;20072;-61
2021/09/12 00:23:26;;;;;;;6.60;5.35;;;18.80;99.90;;;;;;5090236;28;20059;-66
2021/09/12 00:25:51;;;;;;;6.47;4.75;;;18.70;99.90;;;;;;5088230;28;20060;-64
2021/09/12 00:28:17;;;;;;;7.13;5.13;;;18.70;99.90;;;;;;5088743;28;20530;-62
2021/09/12 00:30:42;;;;;;;6.88;4.68;;;18.70;99.90;;;;;;5088691;28;20035;-70
2021/09/12 00:33:08;;;;;;;6.53;5.25;;;18.60;99.90;;;;;;5090345;28;20024;-62
2021/09/12 00:35:34;;;;;;;7.43;4.63;;;18.50;99.90;;;;;;5089045;28;20032;-61
2021/09/12 00:37:59;;;;;;;6.03;4.25;;;18.40;99.90;;;;;;5089630;28;20492;-61
2021/09/12 00:40:25;;;;;;;8.10;4.53;;;18.50;99.90;;;;;;5090725;28;20125;-61
2021/09/12 00:42:51;;;;;;;5.20;4.57;;;18.50;99.90;;;;;;5089520;28;20027;-61
2021/09/12 00:45:17;;;;;;;6.78;4.78;;;18.50;99.90;;;;;;5090231;28;20035;-60
2021/09/12 00:47:46;;;;;;;6.78;4.20;;;18.50;99.90;;;;;;5089583;28;20039;-73
2021/09/12 00:50:12;;;;;;;4.93;4.10;;;18.50;99.90;;;;;;5089143;28;20051;-65
2021/09/12 00:52:43;;;;;;;5.38;4.45;;;18.60;99.90;;;;;;5089228;28;20089;-63
2021/09/12 00:55:10;;;;;;;5.90;4.43;;;18.50;99.90;;;;;;5089409;28;20115;-62
2021/09/12 00:57:36;;;;;;;4.85;3.90;;;18.60;99.90;;;;;;5088218;28;20039;-62
2021/09/12 01:00:05;;;;;;;6.57;5.00;;;18.50;99.90;;;;;;5088321;28;20326;-62
2021/09/12 01:02:30;;;;;;;6.88;4.78;;;18.50;99.90;;;;;;5087775;28;20036;-62
2021/09/12 01:04:56;;;;;;;6.93;4.70;;;18.50;99.90;;;;;;5089232;28;20113;-63
2021/09/12 01:07:22;;;;;;;5.25;4.40;;;18.30;99.90;;;;;;5090061;28;20062;-61
2021/09/12 01:09:47;;;;;;;4.55;4.07;;;18.40;99.90;;;;;;5089731;28;20028;-61
2021/09/12 01:12:13;;;;;;;4.00;3.70;;;18.40;99.90;;;;;;5088296;28;20032;-62
2021/09/12 01:14:39;;;;;;;5.90;4.30;;;18.50;99.90;;;;;;5088370;28;20466;-74
2021/09/12 01:17:05;;;;;;;4.40;3.97;;;18.50;99.90;;;;;;5088094;28;20059;-61
2021/09/12 01:19:32;;;;;;;5.28;4.57;;;18.60;99.90;;;;;;5090027;28;20051;-61
2021/09/12 01:21:59;;;;;;;5.95;4.07;;;18.60;99.90;;;;;;5087504;28;20039;-61
2021/09/12 01:24:26;;;;;;;6.18;4.60;;;18.60;99.90;;;;;;5089393;28;20023;-61
2021/09/12 01:26:52;;;;;;;5.18;3.97;;;18.40;99.90;;;;;;5088434;28;20035;-64
2021/09/12 01:29:18;;;;;;;4.57;4.15;;;18.30;99.90;;;;;;5089053;28;20389;-60
2021/09/12 01:31:44;;;;;;;6.47;4.30;;;18.30;99.90;;;;;;5088461;28;20204;-63
2021/09/12 01:34:09;;;;;;;6.13;4.43;;;18.20;99.90;;;;;;5089296;28;20036;-63
2021/09/12 01:36:35;;;;;;;4.68;4.18;;;18.30;99.90;;;;;;5087743;28;20028;-61
2021/09/12 01:39:01;;;;;;;5.65;4.65;;;18.30;99.90;;;;;;5090301;28;20026;-62
2021/09/12 01:41:28;;;;;;;10.30;4.93;;;18.40;99.90;;;;;;5091511;28;20051;-61
2021/09/12 01:43:56;;;;;;;4.85;4.13;;;18.40;99.90;;;;;;5083285;28;20101;-63
2021/09/12 01:46:22;;;;;;;6.43;3.85;;;18.50;99.90;;;;;;5090422;28;20035;-64
2021/09/12 01:48:48;;;;;;;5.45;4.40;;;18.60;99.90;;;;;;5088754;28;20372;-65
2021/09/12 01:51:14;;;;;;;7.05;4.13;;;18.60;99.90;;;;;;5090503;28;20077;-61
2021/09/12 01:53:40;;;;;;;8.20;4.60;;;18.50;99.90;;;;;;5089778;28;20066;-75
2021/09/12 01:56:07;;;;;;;7.70;4.40;;;18.50;99.90;;;;;;5089711;28;20023;-60
2021/09/12 01:58:33;;;;;;;13.82;4.93;;;18.50;99.90;;;;;;5091139;28;20085;-61
2021/09/12 02:00:58;;;;;;;9.60;4.47;;;18.50;99.90;;;;;;5090212;28;20028;-60
2021/09/12 02:03:24;;;;;;;7.97;4.45;;;18.40;99.90;;;;;;5090510;28;20060;-60
2021/09/12 02:05:50;;;;;;;5.63;4.30;;;18.40;99.90;;;;;;5090094;28;20074;-60
2021/09/12 02:08:16;;;;;;;4.88;3.83;;;18.30;99.90;;;;;;5089752;28;20024;-61
2021/09/12 02:10:43;;;;;;;6.10;4.10;;;18.30;99.90;;;;;;5090495;28;20028;-62
2021/09/12 02:13:09;;;;;;;7.05;3.80;;;18.20;99.90;;;;;;5090535;28;20524;-61
2021/09/12 02:15:34;;;;;;;6.82;3.47;;;18.20;99.90;;;;;;5090932;28;20423;-61
2021/09/12 02:18:00;;;;;;;6.15;4.00;;;18.20;99.90;;;;;;5088743;28;20468;-61
2021/09/12 02:20:26;;;;;;;4.00;3.60;;;18.20;99.90;;;;;;5089271;28;20020;-61
2021/09/12 02:22:51;;;;;;;4.60;4.18;;;18.20;99.90;;;;;;5090381;28;20424;-61
2021/09/12 02:25:17;;;;;;;6.70;3.47;;;18.10;99.90;;;;;;5090661;28;20058;-61
2021/09/12 02:27:42;;;;;;;3.67;3.38;;;18.00;99.90;;;;;;5090580;28;20068;-63
2021/09/12 02:30:08;;;;;;;5.57;3.03;;;18.10;99.90;;;;;;5091214;28;20056;-61
2021/09/12 02:32:34;;;;;;;7.47;3.55;;;18.10;99.90;;;;;;5090565;28;20134;-60
2021/09/12 02:35:00;;;;;;;5.57;2.97;;;18.00;99.90;;;;;;5092320;28;20035;-61
2021/09/12 02:37:26;;;;;;;3.17;2.67;;;18.10;99.90;;;;;;5094844;28;20395;-61
2021/09/12 02:39:51;;;;;;;4.38;2.90;;;18.10;99.90;;;;;;5093964;28;20085;-61
2021/09/12 02:42:17;;;;;;;3.30;2.55;;;18.20;99.90;;;;;;5094585;28;20035;-61
2021/09/12 02:44:43;;;;;;;6.35;2.70;;;18.30;99.90;;;;;;5094371;28;20036;-75
2021/09/12 02:47:08;;;;;;;3.90;3.10;;;18.40;99.90;;;;;;5094119;28;20359;-60
2021/09/12 02:49:34;;;;;;;5.43;3.45;;;18.40;99.90;;;;;;5093061;28;20081;-60
2021/09/12 02:51:59;;;;;;;5.88;3.28;;;18.40;99.90;;;;;;5092265;28;20119;-60
2021/09/12 02:54:25;;;;;;;3.30;2.92;;;18.40;99.90;;;;;;5094026;28;20474;-61
2021/09/12 02:56:51;;;;;;;5.35;3.30;;;18.30;99.90;;;;;;5093658;28;20497;-61
2021/09/12 02:59:16;;;;;;;6.18;3.85;;;18.20;99.90;;;;;;5092884;28;20389;-61
2021/09/12 03:01:42;;;;;;;6.22;3.88;;;18.30;99.90;;;;;;5092545;28;20032;-61
2021/09/12 03:04:07;;;;;;;11.57;4.07;;;18.20;99.90;;;;;;5093395;28;20024;-61
2021/09/12 03:06:33;;;;;;;5.60;3.75;;;18.30;99.90;;;;;;5092879;28;20071;-61
2021/09/12 03:08:59;;;;;;;5.43;3.40;;;18.20;99.90;;;;;;5093511;28;20035;-61
2021/09/12 03:11:24;;;;;;;4.03;3.50;;;18.20;99.90;;;;;;5092895;28;20465;-61
2021/09/12 03:13:50;;;;;;;4.90;3.17;;;18.00;99.90;;;;;;5093214;28;20473;-61
2021/09/12 03:16:16;;;;;;;4.18;3.10;;;18.00;99.90;;;;;;5093790;28;20153;-61
2021/09/12 03:18:44;;;;;;;4.53;3.22;;;18.00;99.90;;;;;;5093737;28;20045;-62
2021/09/12 03:21:09;;;;;;;5.22;3.03;;;18.00;99.90;;;;;;5093859;28;20051;-61
2021/09/12 03:23:35;;;;;;;3.97;3.00;;;18.00;99.90;;;;;;5092148;28;20020;-61
2021/09/12 03:26:01;;;;;;;4.22;3.13;;;18.00;99.90;;;;;;5093124;28;20047;-61
2021/09/12 03:28:26;;;;;;;3.40;2.72;;;18.00;99.90;;;;;;5093540;28;20024;-61
2021/09/12 03:30:52;;;;;;;4.53;2.80;;;18.10;99.90;;;;;;5091351;28;20065;-61
2021/09/12 03:33:18;;;;;;;3.85;2.88;;;18.10;99.90;;;;;;5093497;28;20039;-61
2021/09/12 03:35:43;;;;;;;4.50;3.05;;;18.20;99.90;;;;;;5093423;28;20031;-60
2021/09/12 03:38:09;;;;;;;3.90;2.85;;;18.20;99.90;;;;;;5092371;28;20028;-60
2021/09/12 03:40:35;;;;;;;3.38;2.42;;;18.10;99.90;;;;;;5091809;28;20024;-61
2021/09/12 03:43:01;;;;;;;3.50;2.70;;;18.10;99.90;;;;;;5092381;28;20492;-61
2021/09/12 03:45:27;;;;;;;3.10;2.78;;;18.10;99.90;;;;;;5090883;28;20475;-61
2021/09/12 03:47:52;;;;;;;3.80;3.38;;;18.00;99.90;;;;;;5092160;28;20052;-61
2021/09/12 03:50:18;;;;;;;4.38;3.45;;;17.90;99.90;;;;;;5091731;28;20037;-61
2021/09/12 03:52:44;;;;;;;5.90;3.30;;;17.90;99.90;;;;;;5092665;28;20024;-61
2021/09/12 03:55:10;;;;;;;3.83;3.40;;;17.70;99.90;;;;;;5092021;28;20450;-61
2021/09/12 03:57:36;;;;;;;4.60;3.58;;;17.70;99.90;;;;;;5092943;28;20028;-61
2021/09/12 04:00:07;;;;;;;4.90;3.10;;;17.60;99.90;;;;;;5091940;28;20058;-60
2021/09/12 04:02:37;;;;;;;5.22;3.17;;;17.80;99.90;;;;;;5092669;28;20139;-60
2021/09/12 04:05:03;;;;;;;6.07;3.63;;;17.70;99.90;;;;;;5092126;28;20115;-60
2021/09/12 04:07:28;;;;;;;4.32;3.35;;;17.80;99.90;;;;;;5092617;28;20036;-60
2021/09/12 04:09:54;;;;;;;6.38;2.97;;;17.80;99.90;;;;;;5090765;28;20381;-61
2021/09/12 04:12:20;;;;;;;5.53;3.72;;;17.80;99.90;;;;;;5092857;28;20485;-61
2021/09/12 04:14:45;;;;;;;7.85;4.30;;;17.60;99.90;;;;;;5092687;28;20074;-60
2021/09/12 04:17:11;;;;;;;6.13;4.68;;;17.60;99.90;;;;;;5090600;28;20020;-61
2021/09/12 04:19:37;;;;;;;4.53;3.25;;;17.50;99.90;;;;;;5092255;28;20110;-61
2021/09/12 04:22:02;;;;;;;9.98;4.65;;;17.50;99.90;;;;;;5091642;28;20120;-61
2021/09/12 04:24:28;;;;;;;7.90;4.30;;;17.60;99.90;;;;;;5092010;28;20032;-61
2021/09/12 04:26:54;;;;;;;6.60;4.10;;;17.60;99.90;;;;;;5090479;28;20144;-60
2021/09/12 04:29:20;;;;;;;8.82;4.80;;;17.60;99.90;;;;;;5091118;28;20115;-60
2021/09/12 04:31:46;;;;;;;3.95;3.35;;;17.50;99.90;;;;;;5092410;28;20062;-60
2021/09/12 04:34:11;;;;;;;10.70;4.38;;;17.50;99.90;;;;;;5091670;28;20028;-61
2021/09/12 04:36:37;;;;;;;5.03;3.42;;;17.40;99.90;;;;;;5092036;28;20386;-61
2021/09/12 04:39:03;;;;;;;4.97;4.03;;;17.40;99.90;;;;;;5089971;28;20043;-61
2021/09/12 04:41:28;;;;;;;8.65;3.90;;;17.40;99.90;;;;;;5092144;28;20020;-61
2021/09/12 04:43:54;;;;;;;5.28;4.25;;;17.10;99.90;;;;;;5091277;28;20039;-61
2021/09/12 04:46:20;;;;;;;5.03;3.78;;;17.20;99.90;;;;;;5092040;28;20043;-62
2021/09/12 04:48:45;;;;;;;4.95;4.13;;;17.30;99.90;;;;;;5090359;28;20445;-61
2021/09/12 04:51:11;;;;;;;7.68;4.70;;;17.20;99.90;;;;;;5091227;28;20381;-61
2021/09/12 04:53:37;;;;;;;7.50;4.43;;;17.20;99.90;;;;;;5090503;28;20031;-61
2021/09/12 04:56:02;;;;;;;4.88;3.83;;;17.10;99.90;;;;;;5091370;28;20036;-61
2021/09/12 04:58:28;;;;;;;6.03;3.90;;;17.00;99.90;;;;;;5091693;28;20461;-61
2021/09/12 05:00:54;;;;;;;5.63;4.32;;;16.90;99.90;;;;;;5091412;28;20028;-61
2021/09/12 05:03:20;;;;;;;5.10;4.30;;;17.00;99.90;;;;;;5092239;28;20035;-61
2021/09/12 05:05:45;;;;;;;9.00;3.85;;;17.10;99.90;;;;;;5090648;28;20528;-61
2021/09/12 05:08:11;;;;;;;7.30;4.72;;;17.00;99.90;;;;;;5091048;28;20121;-60
2021/09/12 05:10:37;;;;;;;6.00;4.57;;;17.00;99.90;;;;;;5073549;28;20032;-61
2021/09/12 05:13:02;;;;;;;4.03;3.65;;;16.90;99.90;;;;;;5091288;28;20047;-60
2021/09/12 05:15:28;;;;;;;6.45;4.47;;;16.90;99.90;;;;;;5090398;28;20035;-61
2021/09/12 05:17:53;;;;;;;6.90;4.10;;;17.00;99.90;;;;;;5089779;28;20032;-61
2021/09/12 05:20:19;;;;;;;7.38;4.15;;;16.90;99.90;;;;;;5091558;28;20499;-61
2021/09/12 05:22:44;;;;;;;3.78;3.47;;;17.00;99.90;;;;;;5091539;28;20036;-60
2021/09/12 05:25:10;;;;;;;5.30;4.35;;;16.80;99.90;;;;;;5090758;28;20055;-65
2021/09/12 05:27:36;;;;;;;6.70;4.10;;;16.80;99.90;;;;;;5091003;28;20027;-62
2021/09/12 05:30:02;;;;;;;6.53;4.38;;;16.80;99.90;;;;;;5090915;28;20036;-62
2021/09/12 05:32:28;;;;;;;6.35;4.45;;;16.50;99.90;;;;;;5089919;28;20127;-60
2021/09/12 05:34:53;;;;;;;9.13;5.80;;;16.40;99.90;;;;;;5089195;28;20070;-64
2021/09/12 05:37:19;;;;;;;5.15;4.45;;;16.30;99.90;;;;;;5091023;28;20349;-62
2021/09/12 05:39:45;;;;;;;6.68;4.45;;;16.30;99.90;;;;;;5091435;28;20107;-61
2021/09/12 05:42:10;;;;;;;6.32;4.50;;;16.50;99.90;;;;;;5090770;28;20126;-61
2021/09/12 05:44:36;;;;;;;6.95;4.32;;;16.50;99.90;;;;;;5089679;28;20488;-60
2021/09/12 05:47:02;;;;;;;6.55;4.85;;;16.50;99.90;;;;;;5090241;28;20028;-60
2021/09/12 05:49:27;;;;;;;9.13;4.18;;;16.60;99.90;;;;;;5091093;28;20058;-60
2021/09/12 05:51:53;;;;;;;5.03;4.28;;;16.80;99.90;;;;;;5090658;28;20055;-60
2021/09/12 05:54:19;;;;;;;5.13;4.18;;;16.90;99.90;;;;;;5090945;28;20441;-60
2021/09/12 05:56:46;;;;;;;6.70;4.53;;;16.90;99.90;;;;;;5091370;28;20028;-60
2021/09/12 05:59:11;;;;;;;8.85;4.75;;;17.00;99.90;;;;;;5090584;28;20037;-60
2021/09/12 06:01:37;;;;;;;7.20;3.92;;;17.00;99.90;;;;;;5091226;28;20032;-61
2021/09/12 06:04:03;;;;;;;6.70;4.47;;;17.00;99.90;;;;;;5090391;28;20111;-61
2021/09/12 06:06:30;;;;;;;7.82;4.22;;;16.90;99.90;;;;;;5089462;28;20050;-61
2021/09/12 06:08:55;;;;;;;6.57;4.97;;;16.90;99.90;;;;;;5089113;28;20046;-64
2021/09/12 06:11:21;;;;;;;6.38;4.80;;;16.90;99.90;;;;;;5094829;28;20024;-61
2021/09/12 06:13:47;;;;;;;8.43;4.13;;;17.00;99.90;;;;;;5093854;28;20137;-61
2021/09/12 06:16:12;;;;;;;5.38;4.30;;;17.10;99.90;;;;;;5092936;28;20030;-61
2021/09/12 06:18:38;;;;;;;9.95;4.93;;;17.30;99.90;;;;;;5093510;28;20054;-61
2021/09/12 06:21:04;;;;;;;5.18;4.68;;;17.40;99.90;;;;;;5094016;28;20027;-61
2021/09/12 06:23:31;;;;;;;5.00;3.95;;;17.50;99.90;;;;;;5093440;28;20020;-61
2021/09/12 06:25:58;;;;;;;6.65;4.13;;;17.70;99.90;;;;;;5092509;28;20189;-61
2021/09/12 06:28:24;;;;;;;7.22;4.30;;;17.80;99.90;;;;;;5094407;28;20103;-61
2021/09/12 06:30:50;;;;;;;6.15;4.68;;;18.00;99.90;;;;;;5094739;28;20154;-61
2021/09/12 06:33:15;;;;;;;6.88;4.22;;;18.10;99.90;;;;;;5092829;28;20025;-61
2021/09/12 06:35:41;;;;;;;4.07;3.67;;;18.20;99.90;;;;;;5094912;28;20071;-61
2021/09/12 06:38:07;;;;;;;5.63;3.38;;;18.30;99.90;;;;;;5094224;28;20141;-60
2021/09/12 06:40:33;;;;;;;4.47;3.25;;;18.50;99.90;;;;;;5094551;28;20093;-61
2021/09/12 06:43:00;;;;;;;3.90;2.85;;;18.80;99.90;;;;;;5094113;28;20023;-61
2021/09/12 06:45:26;;;;;;;4.32;3.00;;;19.10;99.90;;;;;;5094344;28;20554;-62
2021/09/12 06:47:52;;;;;;;3.95;2.75;;;19.10;99.90;;;;;;5094721;28;20085;-62
2021/09/12 06:50:19;;;;;;;4.90;3.33;;;19.30;99.90;;;;;;5092308;28;20042;-61
2021/09/12 06:52:44;;;;;;;4.85;2.90;;;19.50;99.90;;;;;;5094169;28;20028;-62
2021/09/12 06:55:10;;;;;;;4.43;3.08;;;19.70;99.90;;;;;;5093458;28;20028;-62
2021/09/12 06:57:36;;;;;;;3.90;3.50;;;19.90;99.90;;;;;;5076259;28;20020;-62
2021/09/12 07:00:03;;;;;;;6.70;3.20;;;19.80;99.90;;;;;;5093605;28;20086;-62
2021/09/12 07:02:29;;;;;;;4.95;3.70;;;20.00;99.90;;;;;;5094221;28;20036;-61
2021/09/12 07:04:55;;;;;;;4.88;3.47;;;19.90;99.90;;;;;;5094089;28;20047;-61
2021/09/12 07:07:20;;;;;;;3.28;2.85;;;19.80;99.90;;;;;;5093139;28;20035;-61
2021/09/12 07:09:46;;;;;;;5.70;3.72;;;19.80;99.90;;;;;;5093442;28;20462;-61
2021/09/12 07:12:11;;;;;;;6.47;3.95;;;19.90;99.90;;;;;;5092998;28;20047;-61
2021/09/12 07:14:37;;;;;;;5.82;3.78;;;19.60;99.90;;;;;;5093551;28;20020;-61
2021/09/12 07:17:03;;;;;;;3.78;3.30;;;19.70;99.90;;;;;;5091640;28;20554;-61
2021/09/12 07:19:28;;;;;;;6.50;4.13;;;19.80;99.90;;;;;;5093552;28;20125;-61
2021/09/12 07:21:54;;;;;;;4.75;3.70;;;19.60;99.90;;;;;;5093008;28;20035;-60
2021/09/12 07:24:19;;;;;;;5.38;3.92;;;19.30;99.90;;;;;;5092523;28;20034;-61
2021/09/12 07:26:45;;;;;;;6.90;3.80;;;19.30;99.90;;;;;;5093345;28;20054;-61
2021/09/12 07:29:11;;;;;;;4.22;3.83;;;19.70;99.90;;;;;;5091438;28;20514;-63
2021/09/12 07:31:36;;;;;;;7.65;3.85;;;19.90;99.90;;;;;;5092041;28;20138;-61
2021/09/12 07:34:04;;;;;;;5.13;3.42;;;20.00;99.90;;;;;;5091470;28;20523;-62
2021/09/12 07:36:29;;;;;;;6.30;3.38;;;20.30;99.90;;;;;;5093531;28;20028;-61
2021/09/12 07:38:55;;;;;;;8.20;3.63;;;20.20;99.90;;;;;;5093335;28;20107;-62
2021/09/12 07:41:21;;;;;;;4.50;3.40;;;20.00;99.90;;;;;;5092782;28;20307;-62
2021/09/12 07:43:47;;;;;;;4.45;3.55;;;20.30;99.90;;;;;;5092006;28;20084;-61
2021/09/12 07:46:12;;;;;;;3.53;3.22;;;20.60;99.90;;;;;;5092378;28;20426;-62
2021/09/12 07:48:38;;;;;;;4.70;3.53;;;20.40;99.90;;;;;;5091650;28;20028;-62
2021/09/12 07:51:05;;;;;;;5.38;4.45;;;20.60;99.90;;;;;;5090639;28;20170;-63
2021/09/12 07:53:31;;;;;;;4.80;3.55;;;20.60;99.90;;;;;;5092589;28;20035;-62
2021/09/12 07:55:57;;;;;;;4.28;3.55;;;20.80;99.90;;;;;;5091431;28;20028;-62
2021/09/12 07:58:22;;;;;;;4.82;3.00;;;20.90;99.90;;;;;;5091879;28;20031;-62
2021/09/12 08:00:48;;;;;;;4.15;3.00;;;21.00;99.90;;;;;;5091162;28;20382;-63
2021/09/12 08:03:14;;;;;;;5.13;3.05;;;21.50;99.90;;;;;;5090700;28;20054;-64
2021/09/12 08:05:39;;;;;;;8.00;2.70;;;21.90;99.90;;;;;;5092030;28;20028;-64
2021/09/12 08:08:05;;;;;;;4.97;3.17;;;22.00;99.90;;;;;;5090320;28;20422;-62
2021/09/12 08:10:31;;;;;;;6.20;3.30;;;22.30;99.90;;;;;;5091248;28;20115;-62
2021/09/12 08:12:56;;;;;;;3.53;2.83;;;22.20;99.90;;;;;;5092487;28;20458;-61
2021/09/12 08:15:22;;;;;;;2.78;2.15;;;22.50;99.90;;;;;;5091594;28;20738;-62
2021/09/12 08:17:47;;;;;;;4.50;2.63;;;22.30;99.90;;;;;;5092130;28;20438;-62
2021/09/12 08:20:13;;;;;;;2.53;2.33;;;22.60;99.90;;;;;;5091202;28;20070;-63
2021/09/12 08:22:39;;;;;;;3.13;2.17;;;22.60;99.90;;;;;;5090254;28;20039;-62
2021/09/12 08:25:05;;;;;;;5.85;2.80;;;23.10;99.90;;;;;;5089505;28;20052;-63
2021/09/12 08:27:31;;;;;;;3.28;2.28;;;23.10;99.90;;;;;;5090241;28;20023;-61
2021/09/12 08:29:56;;;;;;;2.45;1.83;;;23.30;99.90;;;;;;5090605;28;20027;-61
2021/09/12 08:32:22;;;;;;;4.72;2.38;;;23.00;99.90;;;;;;5090750;28;20051;-61
2021/09/12 08:34:48;;;;;;;3.70;1.90;;;22.70;99.90;;;;;;5091665;28;20119;-62
2021/09/12 08:37:14;;;;;;;4.03;1.92;;;23.10;99.90;;;;;;5090919;28;20039;-61
2021/09/12 08:39:39;;;;;;;2.22;1.70;;;22.70;99.90;;;;;;5091348;28;20028;-62
2021/09/12 08:42:05;;;;;;;3.17;1.58;;;22.00;99.90;;;;;;5091356;28;20116;-64
2021/09/12 08:44:33;;;;;;;4.53;2.33;;;22.70;99.90;;;;;;5091234;28;20039;-63
2021/09/12 08:46:59;;;;;;;3.83;1.60;;;23.30;99.90;;;;;;5089665;28;20027;-63
2021/09/12 08:49:25;;;;;;;2.55;1.60;;;23.50;99.90;;;;;;5089109;28;20115;-62
2021/09/12 08:51:50;;;;;;;2.90;1.58;;;23.60;99.80;;;;;;5090569;28;20030;-62
2021/09/12 08:54:16;;;;;;;1.70;1.60;;;23.40;99.90;;;;;;5090344;28;20153;-63
2021/09/12 08:56:41;;;;;;;2.60;1.15;;;23.30;99.90;;;;;;5091351;28;20024;-62
2021/09/12 08:59:37;;;;;;;2.17;1.90;;;23.60;99.70;;;;;;5090419;28;20027;-63
2021/09/12 09:02:05;;;;;;;3.35;1.52;;;24.00;99.00;;;;;;5067862;28;20168;-62
2021/09/12 09:04:33;;;;;;;1.50;1.23;;;24.20;98.30;;;;;;5089563;28;20418;-61
2021/09/12 09:07:10;;;;;;;2.38;1.20;;;23.60;98.70;;;;;;5090832;28;20025;-61
2021/09/12 09:09:43;;;;;;;3.05;1.17;;;23.90;98.90;;;;;;5090493;28;20020;-61
2021/09/12 09:12:23;;;;;;;2.65;1.63;;;23.90;98.80;;;;;;5090417;28;20020;-62
2021/09/12 09:15:06;;;;;;;1.63;1.20;;;24.10;99.10;;;;;;5090672;28;20024;-61
2021/09/12 09:17:40;;;;;;;1.40;1.30;;;24.20;98.40;;;;;;5090481;28;20450;-62
2021/09/12 09:20:09;;;;;;;1.98;1.30;;;23.70;99.10;;;;;;5090176;28;20049;-76
2021/09/12 09:22:39;;;;;;;3.42;1.48;;;24.00;98.60;;;;;;5090212;28;20415;-62
2021/09/12 09:25:12;;;;;;;2.45;0.93;;;23.70;98.90;;;;;;5088609;28;20059;-62
2021/09/12 09:28:00;;;;;;;3.80;0.93;;;24.50;98.40;;;;;;5091114;28;20454;-62
2021/09/12 09:31:08;;;;;;;1.95;1.38;;;24.60;97.10;;;;;;5088164;28;20115;-62
2021/09/12 09:33:37;;;;;;;1.55;0.82;;;24.70;97.00;;;;;;5087972;28;20048;-63
2021/09/12 09:36:06;;;;;;;3.42;0.98;;;25.00;96.50;;;;;;5090241;28;20115;-62
2021/09/12 09:38:34;;;;;;;1.33;0.82;;;25.20;96.00;;;;;;5089032;28;20062;-68
2021/09/12 09:41:09;;;;;;;1.65;0.88;;;25.00;96.20;;;;;;5084263;28;20028;-62
2021/09/12 09:43:44;;;;;;;4.00;1.27;;;24.80;96.30;;;;;;5085576;28;20123;-63
2021/09/12 09:46:37;;;;;;;1.20;0.88;;;24.90;96.50;;;;;;5085995;28;20095;-63
2021/09/12 09:49:36;;;;;;;2.40;0.80;;;25.00;95.90;;;;;;5087306;28;20028;-61
2021/09/12 09:52:02;;;;;;;1.23;0.90;;;25.20;95.80;;;;;;5068797;28;20047;-62
2021/09/12 09:54:31;;;;;;;1.35;0.70;;;25.30;96.20;;;;;;5086023;28;20024;-61
2021/09/12 09:56:58;;;;;;;1.02;0.65;;;25.10;95.70;;;;;;5085796;28;20458;-63
2021/09/12 09:59:27;;;;;;;1.33;0.90;;;25.50;95.40;;;;;;5089288;28;20036;-62
2021/09/12 10:01:54;;;;;;;1.33;0.73;;;25.50;94.90;;;;;;5084879;28;20047;-62
2021/09/12 10:04:29;;;;;;;2.00;0.90;;;26.00;94.30;;;;;;5073629;28;20039;-62
2021/09/12 10:06:57;;;;;;;2.03;1.00;;;25.60;94.10;;;;;;5068640;28;20033;-63
2021/09/12 10:09:23;;;;;;;1.83;0.80;;;25.80;94.30;;;;;;5066625;28;20032;-62
2021/09/12 10:11:51;;;;;;;0.95;0.60;;;26.00;94.00;;;;;;5066301;28;20063;-62
2021/09/12 10:14:22;;;;;;;1.75;1.00;;;26.00;94.00;;;;;;5067016;28;20033;-62
2021/09/12 10:16:48;;;;;;;2.70;1.00;;;25.50;93.50;;;;;;5065991;28;20024;-63
2021/09/12 10:19:34;;;;;;;2.28;0.95;;;25.70;94.10;;;;;;5067363;28;20044;-63
2021/09/12 10:22:01;;;;;;;3.58;0.80;;;25.10;93.90;;;;;;5061614;28;20450;-62
2021/09/12 10:24:30;;;;;;;0.98;0.88;;;25.60;94.60;;;;;;5066924;28;20021;-64
2021/09/12 10:26:56;;;;;;;1.10;0.95;;;25.70;93.50;;;;;;5066074;28;20033;-66
2021/09/12 10:29:51;;;;;;;3.28;0.80;;;25.90;93.30;;;;;;5065591;28;20031;-65
2021/09/12 10:32:36;;;;;;;2.00;0.65;;;26.00;93.10;;;;;;5073285;28;20036;-64
2021/09/12 10:35:11;;;;;;;2.63;0.80;;;25.90;93.60;;;;;;5086277;28;20077;-62
2021/09/12 10:37:37;;;;;;;1.63;0.80;;;26.10;92.30;;;;;;5086360;28;20028;-67
2021/09/12 10:40:03;;;;;;;2.10;0.95;;;25.70;92.50;;;;;;5087596;28;20368;-64
2021/09/12 10:42:42;;;;;;;1.10;0.77;;;26.30;93.40;;;;;;5084881;28;20028;-63
2021/09/12 10:45:20;;;;;;;1.52;0.80;;;26.40;92.70;;;;;;5086286;28;20087;-61
2021/09/12 10:47:46;;;;;;;1.13;0.70;;;26.60;91.80;;;;;;5086253;28;20079;-51
2021/09/12 10:50:37;;;;;;;0.77;0.50;;;26.40;92.60;;;;;;5085751;28;20035;-57
2021/09/12 10:53:03;;;;;;;3.08;0.50;;;27.10;92.60;;;;;;5087435;28;20032;-50
2021/09/12 10:55:29;;;;;;;1.40;0.80;;;27.50;91.40;;;;;;5085589;28;20032;-51
2021/09/12 10:57:54;;;;;;;1.00;0.65;;;27.50;91.30;;;;;;5091492;28;20031;-53
2021/09/12 11:00:20;;;;;;;2.75;0.60;;;27.60;92.50;;;;;;5090714;28;20032;-51
2021/09/12 11:02:49;;;;;;;1.75;1.00;;;27.90;91.30;;;;;;5091303;28;20036;-50
2021/09/12 11:05:26;;;;;;;1.83;0.60;;;28.20;90.50;;;;;;5089542;28;20388;-53
2021/09/12 11:07:56;;;;;;;3.80;1.00;;;27.80;89.90;;;;;;5090790;28;20142;-50
2021/09/12 11:10:50;;;;;;;0.60;0.50;;;27.90;90.50;;;;;;5089995;28;20054;-49
2021/09/12 11:13:23;;;;;;;1.17;0.73;;;28.00;88.70;;;;;;5088424;28;20131;-52
2021/09/12 11:15:49;;;;;;;1.25;0.70;;;28.20;89.70;;;;;;5091207;28;20024;-50
2021/09/12 11:18:15;;;;;;;2.72;0.50;;;28.30;90.30;;;;;;5089021;28;20081;-49
2021/09/12 11:20:43;;;;;;;0.95;0.70;;;27.90;87.90;;;;;;5091241;28;20024;-49
2021/09/12 11:23:10;;;;;;;3.20;0.60;;;27.00;90.10;;;;;;5091328;28;20030;-53
2021/09/12 11:25:37;;;;;;;1.25;0.60;;;26.40;90.50;;;;;;5090752;28;20084;-50
2021/09/12 11:28:05;;;;;;;2.08;0.68;;;26.00;89.60;;;;;;5089793;28;20032;-49
2021/09/12 11:30:32;;;;;;;1.67;0.73;;;26.10;90.80;;;;;;5087599;28;20135;-51
2021/09/12 11:32:58;;;;;;;1.63;0.60;;;26.00;90.90;;;;;;5090010;28;20034;-54
2021/09/12 11:35:24;;;;;;;2.67;0.70;;;25.90;90.50;;;;;;5087249;28;20043;-50
2021/09/12 11:38:07;;;;;;;1.02;0.80;;;26.10;90.80;;;;;;5087970;28;20028;-52
2021/09/12 11:40:32;;;;;;;0.77;0.60;;;26.70;90.20;;;;;;5089277;28;20100;-49
2021/09/12 11:43:09;;;;;;;0.98;0.70;;;26.70;87.90;;;;;;5090025;28;20128;-52
2021/09/12 11:45:35;;;;;;;2.67;0.75;;;26.80;89.10;;;;;;5089789;28;20035;-50
2021/09/12 11:48:02;;;;;;;1.20;0.65;;;27.10;89.10;;;;;;5089335;28;20028;-50
2021/09/12 11:50:27;;;;;;;1.17;0.60;;;27.50;88.20;;;;;;5087741;28;20346;-49
2021/09/12 11:52:53;;;;;;;1.30;1.00;;;27.80;90.60;;;;;;5089984;28;20051;-50
2021/09/12 11:55:27;;;;;;;1.73;0.50;;;28.40;86.70;;;;;;5089860;28;20118;-49
2021/09/12 11:58:00;;;;;;;1.75;1.05;;;27.70;85.50;;;;;;5088750;28;20433;-49
2021/09/12 12:00:27;;;;;;;0.93;0.73;;;27.10;86.30;;;;;;5090126;28;20028;-49
2021/09/12 12:02:54;;;;;;;2.17;0.93;;;26.70;87.70;;;;;;5090258;28;20416;-49
2021/09/12 12:05:20;;;;;;;3.42;0.63;;;27.30;90.00;;;;;;5089570;28;20032;-51
2021/09/12 12:07:46;;;;;;;0.77;0.65;;;27.30;86.40;;;;;;5087367;28;20028;-52
2021/09/12 12:10:30;;;;;;;0.98;0.77;;;26.90;84.00;;;;;;5089477;28;20431;-53
2021/09/12 12:12:56;;;;;;;0.70;0.70;;;26.00;88.00;;;;;;5090722;28;20428;-49
2021/09/12 12:15:33;;;;;;;1.20;0.80;;;26.20;87.60;;;;;;5089195;28;20155;-50
2021/09/12 12:17:59;;;;;;;1.42;0.70;;;26.60;88.00;;;;;;5089139;28;20094;-49
2021/09/12 12:20:25;;;;;;;1.23;0.80;;;26.90;87.20;;;;;;5089479;28;20056;-49
2021/09/12 12:22:50;;;;;;;0.88;0.60;;;26.30;88.10;;;;;;5089971;28;20024;-49
2021/09/12 12:25:29;;;;;;;2.67;0.60;;;26.80;87.70;;;;;;5086997;28;20048;-51
2021/09/12 12:27:55;;;;;;;13.20;1.30;;;27.30;86.00;;;;;;5090008;28;20024;-49
2021/09/12 12:30:21;;;;;;;2.35;1.08;;;27.30;86.20;;;;;;5089024;28;20036;-51
2021/09/12 12:32:47;;;;;;;1.08;0.70;;;27.60;86.00;;;;;;5089408;28;20036;-49
2021/09/12 12:35:15;;;;;;;1.75;0.98;;;27.40;85.60;;;;;;5088128;28;20028;-50
2021/09/12 12:37:42;;;;;;;0.82;0.75;;;26.90;85.20;;;;;;5090284;28;20039;-51
2021/09/12 12:40:11;;;;;;;0.90;0.70;;;26.90;85.80;;;;;;5090391;28;20032;-50
2021/09/12 12:42:42;;;;;;;1.35;0.60;;;26.60;87.00;;;;;;5088734;28;20024;-50
2021/09/12 12:45:24;;;;;;;1.48;0.70;;;26.50;86.90;;;;;;5089955;28;20492;-49
2021/09/12 12:47:52;;;;;;;1.38;0.70;;;26.50;87.30;;;;;;5088637;28;20135;-55